Home > Products > Valid Products > TAF

000
FTUS43 KUNR 012100 AAB
TAFRAP
TAF AMD
KRAP 012106Z 0121/0218 35016KT P6SM -SHRA BKN060
     FM020000 32011KT P6SM BKN100
     FM020600 30005KT P6SM SCT100=



000
FTUS43 KUNR 012000 AAA
TAFRAP
TAF AMD
KRAP 012005Z 0120/0218 34016G26KT P6SM BKN040
      TEMPO 0120/0122 3SM -RA BKN022
     FM020000 32011KT P6SM BKN100
     FM020600 30005KT P6SM SCT100=



000
FTUS43 KUNR 011700
TAFGCC
TAF
KGCC 011732Z 0118/0218 32015KT P6SM SCT025 BKN035
     FM020000 27005KT P6SM SCT030
     FM020600 23010KT P6SM SCT100=



000
FTUS43 KUNR 011700
TAFRAP
TAF
KRAP 011732Z 0118/0218 34016G26KT P6SM BKN040
     FM020000 32011KT P6SM BKN100
     FM020600 30005KT P6SM SCT100=



000
FTUS43 KUNR 011100
TAFGCC
TAF
KGCC 011120Z 0112/0212 31013KT P6SM SCT020 OVC060
      TEMPO 0112/0116 -SHRA BKN020
     FM011700 32015KT P6SM BKN035
     FM012200 33005KT P6SM SCT100=



000
FTUS43 KUNR 011100
TAFRAP
TAF
KRAP 011120Z 0112/0212 31005KT P6SM SCT120
     FM011600 33016G26KT P6SM BKN040
     FM020100 32007KT P6SM SCT150=



000
FTUS43 KUNR 011000 AAA
TAFGCC
TAF AMD
KGCC 011011Z 0110/0206 31013KT P6SM SCT020 OVC060
      TEMPO 0112/0116 -SHRA BKN020
     FM011700 32015KT P6SM BKN035
     FM012200 33005KT P6SM SCT100=



000
FTUS43 KUNR 010600 AAA
TAFRAP
TAF AMD
KRAP 010604Z 0106/0206 31005KT P6SM BKN100
     FM011600 33014KT P6SM BKN035
     FM012300 33008KT P6SM SCT150=



000
FTUS43 KUNR 010500
TAFRAP
TAF
KRAP 010520Z 0106/0206 30015KT P6SM BKN100
     FM011600 33014KT P6SM BKN035
     FM012300 33008KT P6SM SCT150=



000
FTUS43 KUNR 010500
TAFGCC
TAF
KGCC 010520Z 0106/0206 27010KT P6SM BKN050 OVC100
     FM010900 33012KT P6SM -SHRA BKN020 OVC040
     FM011700 32010KT P6SM BKN035
     FM012200 27008KT P6SM SCT100=



000
FTUS43 KUNR 302300
TAFRAP
TAF
KRAP 302320Z 0100/0124 30015KT P6SM BKN050
     FM010400 33010KT P6SM BKN100=



000
FTUS43 KUNR 302300
TAFGCC
TAF
KGCC 302320Z 0100/0124 30014KT P6SM BKN050 OVC100
     FM010900 33012KT P6SM -SHRA OVC020
     FM011600 32010KT P6SM BKN035=



000
FTUS43 KUNR 302200 AAB
TAFRAP
TAF AMD
KRAP 302221Z 3022/0118 30015KT P6SM BKN050
     FM010400 33010KT P6SM OVC100=



000
FTUS43 KUNR 302000 AAA
TAFRAP
TAF AMD
KRAP 302022Z 3020/0118 31025G35KT P6SM SCT030 BKN060
      TEMPO 3020/3024 -SHRA BKN030
     FM010000 30020KT P6SM BKN050
     FM010200 33012KT P6SM OVC100=



000
FTUS43 KUNR 301700
TAFRAP
TAF
KRAP 301724Z 3018/0118 33015G25KT 3SM -RA BKN018 OVC030
     FM302100 31025G35KT P6SM -SHRA BKN030
     FM010000 30020KT P6SM BKN050
     FM010200 33012KT P6SM OVC100=



000
FTUS43 KUNR 301700
TAFGCC
TAF
KGCC 301724Z 3018/0118 31018G28KT P6SM SCT025 OVC050
     FM010000 29009KT P6SM BKN040
     FM011000 33012KT P6SM BKN025=



000
FTUS43 KUNR 301600 AAD
TAFRAP
TAF AMD
KRAP 301608Z 3016/0112 35015G25KT 2SM -RA BKN015 OVC050
      TEMPO 3016/3018 1SM TSRA BKN015CB
     FM301800 33025G35KT P6SM -SHRA BKN040
     FM302200 31023KT P6SM BKN060
     FM010200 31012KT P6SM OVC100=



000
FTUS43 KUNR 301500 AAC
TAFRAP
TAF AMD
KRAP 301538Z 3016/0112 35015G25KT 5SM -RA BKN030 OVC060
     FM301800 33025G35KT P6SM -SHRA BKN040
     FM302200 31023KT P6SM BKN060
     FM010200 31012KT P6SM OVC100=



000
FTUS43 KUNR 301300 AAB
TAFGCC
TAF AMD
KGCC 301359Z 3014/0112 30011KT P6SM -RA FEW007 OVC060
     FM301700 31018G28KT P6SM BKN035
     FM010000 33008KT P6SM BKN040=



000
FTUS43 KUNR 301300 AAB
TAFRAP
TAF AMD
KRAP 301347Z 3014/0112 35015G25KT 2SM -RA BR FEW003 BKN008 OVC025
     FM301800 33025G35KT P6SM -SHRA BKN040
     FM302200 31023KT P6SM BKN060
     FM010200 31012KT P6SM OVC100=



000
FTUS43 KUNR 301200 AAA
TAFRAP
TAF AMD
KRAP 301223Z 3012/0112 36019G29KT P6SM -RA BKN012
      TEMPO 3012/3016 4SM BR BKN003
     FM301800 33025G35KT P6SM -SHRA BKN040
     FM302200 31023KT P6SM BKN060
     FM010200 31012KT P6SM OVC100=



000
FTUS43 KUNR 301200 AAA
TAFGCC
TAF AMD
KGCC 301221Z 3012/0112 30011KT P6SM -RA OVC007
     FM301700 31018G28KT P6SM BKN035
     FM010000 33008KT P6SM BKN040=



000
FTUS43 KUNR 301100
TAFRAP
TAF
KRAP 301120Z 3012/0112 36019G29KT 6SM -RA BR BKN012
      TEMPO 3012/3016 2SM -RA BR BKN003
     FM301800 33025G35KT P6SM -SHRA BKN040
     FM302200 31023KT P6SM BKN060
     FM010200 31012KT P6SM OVC100=



000
FTUS43 KUNR 301100
TAFGCC
TAF
KGCC 301120Z 3012/0112 30011KT P6SM -SHRA OVC010
     FM301700 31018G28KT P6SM BKN035
     FM010000 33008KT P6SM BKN040=



000
FTUS43 KUNR 300900 AAA
TAFGCC
TAF AMD
KGCC 300954Z 3010/0106 30011KT P6SM -SHRA OVC011
     FM301700 31018G28KT P6SM BKN035
     FM010000 33008KT P6SM BKN040=



000
FTUS43 KUNR 300800 AAA
TAFRAP
TAF AMD
KRAP 300821Z 3008/0106 36013KT P6SM -RA BKN015
      TEMPO 3008/3011 4SM RA BR BKN008
     FM301100 34024G35KT 3SM -RA OVC015
     FM301800 33025G35KT P6SM -SHRA BKN040
     FM302300 33017KT P6SM BKN060=



000
FTUS43 KUNR 300500
TAFGCC
TAF
KGCC 300536Z 3006/0106 15008KT P6SM OVC010
      TEMPO 3006/3008 5SM -SHRA OVC008
     FM300800 30011KT 3SM -SHRA OVC008
     FM301200 33018G28KT P6SM -SHRA OVC010
     FM301600 31018KT P6SM BKN040=



000
FTUS43 KUNR 300500
TAFRAP
TAF
KRAP 300536Z 3006/0106 35008KT 2SM +RA BR OVC010
      TEMPO 3006/3009 1SM TSRA OVC008CB
     FM301100 35024G35KT 3SM -RA OVC015
     FM301800 33025G35KT P6SM -SHRA BKN040
     FM302300 33017KT P6SM BKN060=



000
FTUS43 KUNR 300500 AAC
TAFRAP
TAF AMD
KRAP 300505Z 3005/3024 35008KT 2SM +RA BR OVC010
      TEMPO 3006/3009 1SM TSRA OVC008CB
     FM301100 35024G35KT 3SM -RA OVC015
     FM301800 33025G35KT P6SM -SHRA BKN040
     FM302300 33017KT P6SM BKN060=



000
FTUS43 KUNR 300500 AAD
TAFGCC
TAF AMD
KGCC 300505Z 3005/3024 15008KT P6SM OVC010
      TEMPO 3006/3008 5SM -SHRA OVC008
     FM300800 30011KT 3SM -SHRA OVC008
     FM301200 33018G28KT P6SM -SHRA OVC010
     FM301600 31018KT P6SM BKN040=



000
FTUS43 KUNR 300400 AAC
TAFGCC
TAF AMD
KGCC 300441Z 3005/3024 15008KT P6SM SCT020 OVC040
      TEMPO 3005/3007 5SM -SHRA BKN020 OVC040
     FM300700 30011KT 3SM -SHRA OVC010
     FM301000 33018G28KT P6SM -SHRA OVC010
     FM301500 31018KT P6SM SCT020 BKN050=



000
FTUS43 KUNR 300300 AAB
TAFRAP
TAF AMD
KRAP 300308Z 3003/3024 10008KT 1SM RA BR OVC002
      TEMPO 3003/3006 1/2SM TSRA FG OVC002CB
     FM300600 04015KT 1SM +RA BR OVC004
     FM301100 35024G35KT 3SM -RA BR OVC015=



000
FTUS43 KUNR 300100 AAB
TAFGCC
TAF AMD
KGCC 300112Z 3001/3024 15012KT P6SM SCT030 BKN100
     FM300400 15008KT P6SM -SHRA SCT020 OVC040
      TEMPO 3004/3007 3SM TSRA BKN020 OVC040CB
     FM300700 30011KT P6SM -SHRA OVC020
     FM301000 33018G28KT P6SM -SHRA OVC010
     FM301500 31018KT P6SM SCT020 BKN050=



000
FTUS43 KUNR 300000 AAA
TAFGCC
TAF AMD
KGCC 300011Z 3000/3024 15012KT P6SM SCT030 BKN100
     FM300200 15008KT P6SM -SHRA SCT020 OVC040
      TEMPO 3002/3004 3SM TSRA BKN020 OVC040CB
     FM300800 30011KT P6SM -SHRA OVC020
     FM301000 33018G28KT P6SM -SHRA OVC010
     FM301500 31018KT P6SM SCT020 BKN050=



000
FTUS43 KUNR 300000 AAA
TAFRAP
TAF AMD
KRAP 300011Z 3000/3024 10008KT 1SM BR OVC003
     FM300200 04011KT P6SM -RA OVC006
      TEMPO 3002/3005 1SM TSRA BR OVC006CB
     FM300500 04015KT 1SM +RA BR OVC008
     FM301100 35024G35KT 3SM -RA BR OVC015=



000
FTUS43 KUNR 300000 RRA
TAFRAP
TAF
KRAP 300010Z 3000/3024 10008KT P6SM OVC007
     FM300200 04011KT P6SM -RA OVC006
      TEMPO 3002/3005 1SM TSRA BR OVC006CB
     FM300500 04015KT 1SM +RA BR OVC008
     FM301100 35024G35KT 3SM -RA BR OVC015=



000
FTUS43 KUNR 300000 RRA
TAFGCC
TAF
KGCC 300010Z 3000/3024 15012KT P6SM SCT030 BKN100
     FM300200 15008KT P6SM -SHRA SCT020 OVC040
      TEMPO 3002/3004 3SM TSRA BKN020 OVC040CB
     FM300800 30011KT P6SM -SHRA OVC020
     FM301000 33018G28KT P6SM -SHRA OVC010
     FM301500 31018KT P6SM SCT020 BKN050=



000
FTUS43 KUNR 292200 AAB
TAFRAP
TAF AMD
KRAP 292257Z 2923/3018 10008KT P6SM OVC006
     FM300200 04011KT P6SM -RA OVC006
     FM300500 04015KT 1SM +RA BR OVC008
     FM301100 36020G30KT 3SM -RA BR OVC015=



000
FTUS43 KUNR 292000 AAA
TAFGCC
TAF AMD
KGCC 292045Z 2921/3018 17012KT P6SM FEW025 BKN035
     FM300300 15008KT P6SM -SHRA SCT010 OVC025
     FM300900 30011KT P6SM -SHRA OVC020=



000
FTUS43 KUNR 291700 AAA
TAFRAP
TAF AMD
KRAP 291758Z 2918/3018 10008KT 6SM BR SCT008 OVC015
      TEMPO 2918/2922 2SM -SHRA BR OVC005
     FM300200 04011KT 2SM RA BR BKN005 OVC010=



000
FTUS43 KUNR 291700
TAFRAP
TAF
KRAP 291720Z 2918/3018 10008KT 6SM -SHRA BR SCT008 OVC015
      TEMPO 2918/2922 2SM -SHRA BR OVC005
     FM300200 04011KT 2SM RA BR BKN005 OVC010=



000
FTUS43 KUNR 291700
TAFGCC
TAF
KGCC 291720Z 2918/3018 17012KT P6SM BKN025
     FM300300 15008KT P6SM -SHRA SCT010 OVC040
     FM300900 30011KT P6SM -SHRA OVC020=



000
FTUS43 KUNR 291500 AAB
TAFRAP
TAF AMD
KRAP 291530Z 2916/3012 10007KT 3SM -SHRA BR BKN004 OVC020
     FM291800 08010KT 6SM -SHRA BR OVC008
     FM300200 03011KT 3SM -RA BR OVC005=



000
FTUS43 KUNR 291500 AAA
TAFGCC
TAF AMD
KGCC 291508Z 2915/3012 06010KT P6SM FEW008 OVC020
      TEMPO 2915/2916 3SM -SHRA BR SCT004 OVC020
     FM291900 17012KT P6SM BKN020
     FM300200 15008KT P6SM OVC010=



000
FTUS43 KUNR 291500 AAA
TAFRAP
TAF AMD
KRAP 291504Z 2915/3012 07007KT 3SM -SHRA BR SCT003 OVC020
     FM291800 08010KT 6SM -SHRA BR OVC008
     FM300200 03011KT 3SM -RA BR OVC005=



000
FTUS43 KUNR 291100 CCA
TAFRAP
TAF COR
KRAP 291151Z 2912/3012 07007KT 2SM -SHRA BR BKN003
      TEMPO 2913/2917 P6SM -SHRA SCT005 OVC020
     FM291800 08010KT 6SM -SHRA BR OVC008
     FM300200 03011KT 3SM -RA BR OVC005=



000
FTUS43 KUNR 291100
TAFGCC
TAF
KGCC 291120Z 2912/3012 06010KT P6SM OVC008
      TEMPO 2912/2916 3SM -SHRA BR OVC004
     FM291900 17012KT P6SM BKN020
     FM300200 15008KT P6SM OVC010=



000
FTUS43 KUNR 291100
TAFRAP
TAF
KRAP 291120Z 2912/3012 07007KT 3SM -SHRA BR BKN007
      TEMPO 2913/2917 P6SM -SHRA SCT005 OVC020
     FM291800 08010KT 6SM -SHRA BR OVC008
     FM300200 03011KT 3SM -RA BR OVC005=



000
FTUS43 KUNR 290900 AAA
TAFRAP
TAF AMD
KRAP 290919Z 2909/3006 03011KT 2SM -SHRA BR OVC004
     FM291800 08010KT 6SM BR OVC008
     FM300200 03011KT 3SM -RA BR OVC005=



000
FTUS43 KUNR 290500
TAFRAP
TAF
KRAP 290520Z 2906/3006 03011KT 3SM -SHRA BR OVC003
     FM291800 08010KT 6SM BR OVC008
     FM300200 03011KT 3SM -RA BR OVC005=



000
FTUS43 KUNR 290500
TAFGCC
TAF
KGCC 290520Z 2906/3006 06010KT 6SM -SHRA BR OVC004
     FM291800 17012KT 6SM BR SCT008 BKN015
     FM292100 16012KT P6SM SCT015 BKN035
     FM300200 15008KT P6SM OVC015=



000
FTUS43 KUNR 290000 AAA
TAFRAP
TAF AMD
KRAP 290058Z 2901/2924 36011KT 3SM BR SCT003 OVC005
     FM290400 03011KT 3SM -SHRA BR OVC003
     FM291800 08010KT 6SM BR OVC008=



000
FTUS43 KUNR 282300
TAFGCC
TAF
KGCC 282320Z 2900/2924 03011KT 3SM BR SCT004 OVC008
     FM290300 06010KT 3SM -SHRA BR OVC004
     FM291800 17012KT 6SM BR SCT008 BKN015
     FM292100 16012KT P6SM SCT015 BKN035=



000
FTUS43 KUNR 282300
TAFRAP
TAF
KRAP 282320Z 2900/2924 01013KT 6SM BR SCT003 OVC008
     FM290600 03011KT 3SM -RA BR OVC003
     FM291800 08010KT 6SM BR OVC008=



    US Dept of Commerce
    National Oceanic and Atmospheric Administration
    National Weather Service
    1325 East West Highway
    Silver Spring, MD 20910
    Page Author: NWS Internet Services Team
Disclaimer
Information Quality
Credits
Glossary
Privacy Policy
Freedom of Information Act (FOIA)
About Us
Career Opportunities